sensor_id;sensor_type;location;lat;lon;timestamp;pressure;altitude;pressure_sealevel;temperature;humidity
41467;BME280;27205;53.690;19.948;2023-06-04T00:03:37;100746.84;;;8.29;40.60
41467;BME280;27205;53.690;19.948;2023-06-04T00:08:41;100743.55;;;8.23;39.86
41467;BME280;27205;53.690;19.948;2023-06-04T00:13:44;100739.77;;;8.15;40.04
41467;BME280;27205;53.690;19.948;2023-06-04T00:18:48;100737.78;;;8.12;40.24
41467;BME280;27205;53.690;19.948;2023-06-04T00:23:52;100738.31;;;8.10;40.55
41467;BME280;27205;53.690;19.948;2023-06-04T00:28:55;100738.77;;;8.08;41.00
41467;BME280;27205;53.690;19.948;2023-06-04T00:33:59;100735.05;;;8.09;41.60
41467;BME280;27205;53.690;19.948;2023-06-04T00:39:03;100733.86;;;8.12;41.65
41467;BME280;27205;53.690;19.948;2023-06-04T00:44:06;100732.66;;;8.11;41.84
41467;BME280;27205;53.690;19.948;2023-06-04T00:49:10;100731.77;;;8.06;42.04
41467;BME280;27205;53.690;19.948;2023-06-04T00:54:15;100729.04;;;8.02;42.17
41467;BME280;27205;53.690;19.948;2023-06-04T00:59:21;100726.95;;;7.96;42.28
41467;BME280;27205;53.690;19.948;2023-06-04T01:04:31;100720.54;;;7.87;42.76
41467;BME280;27205;53.690;19.948;2023-06-04T01:09:36;100714.54;;;7.80;43.42
41467;BME280;27205;53.690;19.948;2023-06-04T01:14:42;100715.55;;;7.74;43.44
41467;BME280;27205;53.690;19.948;2023-06-04T01:20:05;100709.19;;;7.67;43.34
41467;BME280;27205;53.690;19.948;2023-06-04T01:25:20;100718.23;;;7.56;43.75
41467;BME280;27205;53.690;19.948;2023-06-04T01:30:30;100717.16;;;7.46;44.38
41467;BME280;27205;53.690;19.948;2023-06-04T01:35:34;100715.20;;;7.37;44.31
41467;BME280;27205;53.690;19.948;2023-06-04T01:40:38;100714.33;;;7.28;44.20
41467;BME280;27205;53.690;19.948;2023-06-04T01:45:42;100712.30;;;7.18;44.60
41467;BME280;27205;53.690;19.948;2023-06-04T01:50:45;100708.33;;;7.10;45.24
41467;BME280;27205;53.690;19.948;2023-06-04T01:55:49;100703.55;;;7.05;45.09
41467;BME280;27205;53.690;19.948;2023-06-04T02:00:54;100704.25;;;6.98;44.86
41467;BME280;27205;53.690;19.948;2023-06-04T02:05:58;100700.65;;;6.92;45.28
41467;BME280;27205;53.690;19.948;2023-06-04T02:11:02;100698.06;;;6.85;46.04
41467;BME280;27205;53.690;19.948;2023-06-04T02:16:06;100699.86;;;6.81;45.92
41467;BME280;27205;53.690;19.948;2023-06-04T02:21:09;100696.20;;;6.81;46.45
41467;BME280;27205;53.690;19.948;2023-06-04T02:26:13;100695.94;;;6.83;46.39
41467;BME280;27205;53.690;19.948;2023-06-04T02:31:17;100695.33;;;6.85;46.44
41467;BME280;27205;53.690;19.948;2023-06-04T02:36:20;100698.61;;;6.88;46.22
41467;BME280;27205;53.690;19.948;2023-06-04T02:41:24;100699.41;;;6.94;46.62
41467;BME280;27205;53.690;19.948;2023-06-04T02:46:28;100698.91;;;6.99;46.51
41467;BME280;27205;53.690;19.948;2023-06-04T02:51:32;100698.89;;;7.03;47.00
41467;BME280;27205;53.690;19.948;2023-06-04T02:56:36;100701.83;;;7.08;46.84
41467;BME280;27205;53.690;19.948;2023-06-04T03:01:40;100700.46;;;7.15;46.72
41467;BME280;27205;53.690;19.948;2023-06-04T03:06:44;100697.14;;;7.24;46.64
41467;BME280;27205;53.690;19.948;2023-06-04T03:11:48;100701.94;;;7.29;46.74
41467;BME280;27205;53.690;19.948;2023-06-04T03:16:51;100699.67;;;7.38;47.26
41467;BME280;27205;53.690;19.948;2023-06-04T03:21:55;100701.59;;;7.52;47.60
41467;BME280;27205;53.690;19.948;2023-06-04T03:27:00;100701.02;;;7.67;48.04
41467;BME280;27205;53.690;19.948;2023-06-04T03:32:04;100699.18;;;7.83;47.98
41467;BME280;27205;53.690;19.948;2023-06-04T03:37:08;100698.55;;;8.00;47.62
41467;BME280;27205;53.690;19.948;2023-06-04T03:42:11;100697.69;;;8.20;47.50
41467;BME280;27205;53.690;19.948;2023-06-04T03:47:15;100699.45;;;8.37;47.97
41467;BME280;27205;53.690;19.948;2023-06-04T03:52:18;100700.13;;;8.59;47.83
41467;BME280;27205;53.690;19.948;2023-06-04T03:57:23;100704.29;;;8.80;47.87
41467;BME280;27205;53.690;19.948;2023-06-04T04:02:26;100706.26;;;9.01;48.00
41467;BME280;27205;53.690;19.948;2023-06-04T04:07:30;100705.23;;;9.24;48.13
41467;BME280;27205;53.690;19.948;2023-06-04T04:12:33;100702.26;;;9.47;47.83
41467;BME280;27205;53.690;19.948;2023-06-04T04:17:37;100702.05;;;9.71;47.76
41467;BME280;27205;53.690;19.948;2023-06-04T04:22:41;100698.69;;;9.97;47.86
41467;BME280;27205;53.690;19.948;2023-06-04T04:27:45;100697.23;;;10.20;47.89
41467;BME280;27205;53.690;19.948;2023-06-04T04:32:48;100697.50;;;10.44;47.95
41467;BME280;27205;53.690;19.948;2023-06-04T04:37:52;100690.42;;;10.68;47.73
41467;BME280;27205;53.690;19.948;2023-06-04T04:42:57;100691.58;;;10.93;47.84
41467;BME280;27205;53.690;19.948;2023-06-04T04:48:01;100692.94;;;11.17;47.93
41467;BME280;27205;53.690;19.948;2023-06-04T04:53:05;100688.90;;;11.44;47.89
41467;BME280;27205;53.690;19.948;2023-06-04T04:58:09;100689.48;;;11.72;47.59
41467;BME280;27205;53.690;19.948;2023-06-04T05:03:12;100693.79;;;11.99;47.60
41467;BME280;27205;53.690;19.948;2023-06-04T05:08:16;100695.31;;;12.26;47.67
41467;BME280;27205;53.690;19.948;2023-06-04T05:13:20;100702.05;;;12.52;47.67
41467;BME280;27205;53.690;19.948;2023-06-04T05:18:23;100704.27;;;12.80;47.99
41467;BME280;27205;53.690;19.948;2023-06-04T05:23:32;100698.23;;;13.10;47.94
41467;BME280;27205;53.690;19.948;2023-06-04T05:28:37;100698.39;;;13.38;47.76
41467;BME280;27205;53.690;19.948;2023-06-04T05:33:41;100707.00;;;13.68;47.18
41467;BME280;27205;53.690;19.948;2023-06-04T05:38:45;100705.51;;;14.02;46.85
41467;BME280;27205;53.690;19.948;2023-06-04T05:43:49;100705.40;;;14.27;46.28
41467;BME280;27205;53.690;19.948;2023-06-04T05:48:53;100709.65;;;14.50;45.92
41467;BME280;27205;53.690;19.948;2023-06-04T05:53:57;100709.68;;;14.75;45.55
41467;BME280;27205;53.690;19.948;2023-06-04T05:59:00;100712.08;;;15.03;45.32
41467;BME280;27205;53.690;19.948;2023-06-04T06:04:04;100709.11;;;15.29;45.01
41467;BME280;27205;53.690;19.948;2023-06-04T06:09:09;100711.14;;;15.54;44.70
41467;BME280;27205;53.690;19.948;2023-06-04T06:14:13;100707.88;;;15.76;44.39
41467;BME280;27205;53.690;19.948;2023-06-04T06:19:16;100709.14;;;16.04;44.23
41467;BME280;27205;53.690;19.948;2023-06-04T06:24:20;100712.84;;;16.20;43.65
41467;BME280;27205;53.690;19.948;2023-06-04T06:29:24;100713.63;;;16.36;43.26
41467;BME280;27205;53.690;19.948;2023-06-04T06:34:27;100718.98;;;16.52;43.07
41467;BME280;27205;53.690;19.948;2023-06-04T06:39:31;100719.98;;;16.71;42.85
41467;BME280;27205;53.690;19.948;2023-06-04T06:44:35;100721.64;;;16.89;42.53
41467;BME280;27205;53.690;19.948;2023-06-04T06:49:42;100725.97;;;16.99;42.06
41467;BME280;27205;53.690;19.948;2023-06-04T06:54:46;100729.89;;;17.15;41.80
41467;BME280;27205;53.690;19.948;2023-06-04T06:59:49;100724.59;;;17.32;41.49
41467;BME280;27205;53.690;19.948;2023-06-04T07:04:55;100723.14;;;17.50;41.23
41467;BME280;27205;53.690;19.948;2023-06-04T07:09:58;100721.92;;;17.67;40.77
41467;BME280;27205;53.690;19.948;2023-06-04T07:15:02;100721.52;;;17.81;40.55
41467;BME280;27205;53.690;19.948;2023-06-04T07:20:06;100723.13;;;18.00;40.51
41467;BME280;27205;53.690;19.948;2023-06-04T07:25:11;100727.00;;;18.19;40.17
41467;BME280;27205;53.690;19.948;2023-06-04T07:30:14;100727.68;;;18.24;39.13
41467;BME280;27205;53.690;19.948;2023-06-04T07:35:18;100727.75;;;18.23;38.69
41467;BME280;27205;53.690;19.948;2023-06-04T07:40:22;100733.95;;;18.38;38.66
41467;BME280;27205;53.690;19.948;2023-06-04T07:45:25;100732.34;;;18.50;37.95
41467;BME280;27205;53.690;19.948;2023-06-04T07:50:33;100723.38;;;18.69;37.82
41467;BME280;27205;53.690;19.948;2023-06-04T07:55:40;100728.11;;;18.79;36.83
41467;BME280;27205;53.690;19.948;2023-06-04T08:00:44;100726.48;;;19.00;36.99
41467;BME280;27205;53.690;19.948;2023-06-04T08:05:47;100720.79;;;19.31;36.56
41467;BME280;27205;53.690;19.948;2023-06-04T08:10:50;100723.44;;;19.63;36.39
41467;BME280;27205;53.690;19.948;2023-06-04T08:15:54;100720.13;;;19.79;35.93
41467;BME280;27205;53.690;19.948;2023-06-04T08:20:58;100719.34;;;19.85;34.64
41467;BME280;27205;53.690;19.948;2023-06-04T08:26:01;100721.86;;;19.77;34.23
41467;BME280;27205;53.690;19.948;2023-06-04T08:31:05;100722.48;;;19.79;34.02
41467;BME280;27205;53.690;19.948;2023-06-04T08:36:08;100722.37;;;19.79;33.01
41467;BME280;27205;53.690;19.948;2023-06-04T08:46:31;100716.09;;;20.04;32.92
41467;BME280;27205;53.690;19.948;2023-06-04T08:51:36;100721.17;;;19.86;32.70
41467;BME280;27205;53.690;19.948;2023-06-04T08:56:40;100726.90;;;19.78;33.08
41467;BME280;27205;53.690;19.948;2023-06-04T09:01:48;100723.41;;;20.11;33.00
41467;BME280;27205;53.690;19.948;2023-06-04T09:06:53;100716.19;;;20.54;32.96
41467;BME280;27205;53.690;19.948;2023-06-04T09:11:58;100712.55;;;20.97;32.58
41467;BME280;27205;53.690;19.948;2023-06-04T09:17:05;100708.63;;;21.50;32.59
41467;BME280;27205;53.690;19.948;2023-06-04T09:22:08;100710.04;;;21.56;32.26
41467;BME280;27205;53.690;19.948;2023-06-04T09:27:17;100713.08;;;21.71;32.18
41467;BME280;27205;53.690;19.948;2023-06-04T09:32:29;100714.21;;;22.15;31.79
41467;BME280;27205;53.690;19.948;2023-06-04T09:37:33;100713.59;;;22.61;31.51
41467;BME280;27205;53.690;19.948;2023-06-04T09:42:45;100715.59;;;23.05;30.93
41467;BME280;27205;53.690;19.948;2023-06-04T09:47:48;100715.66;;;22.82;30.48
41467;BME280;27205;53.690;19.948;2023-06-04T09:52:53;100711.98;;;22.94;30.09
41467;BME280;27205;53.690;19.948;2023-06-04T09:57:58;100714.23;;;23.18;29.85
41467;BME280;27205;53.690;19.948;2023-06-04T10:03:03;100714.80;;;23.40;29.71
41467;BME280;27205;53.690;19.948;2023-06-04T10:08:08;100710.36;;;23.71;29.59
41467;BME280;27205;53.690;19.948;2023-06-04T10:13:19;100710.85;;;23.78;29.32
41467;BME280;27205;53.690;19.948;2023-06-04T10:18:23;100709.00;;;23.36;28.69
41467;BME280;27205;53.690;19.948;2023-06-04T10:23:27;100706.89;;;23.20;28.67
41467;BME280;27205;53.690;19.948;2023-06-04T10:28:33;100706.29;;;23.23;28.27
41467;BME280;27205;53.690;19.948;2023-06-04T10:33:39;100706.14;;;23.44;28.32
41467;BME280;27205;53.690;19.948;2023-06-04T10:38:47;100697.80;;;23.75;28.08
41467;BME280;27205;53.690;19.948;2023-06-04T10:43:52;100703.83;;;23.27;27.69
41467;BME280;27205;53.690;19.948;2023-06-04T10:49:03;100698.74;;;22.88;27.87
41467;BME280;27205;53.690;19.948;2023-06-04T10:54:07;100696.42;;;23.28;28.00
41467;BME280;27205;53.690;19.948;2023-06-04T10:59:15;100700.67;;;23.73;27.31
41467;BME280;27205;53.690;19.948;2023-06-04T11:04:24;100700.53;;;23.43;26.80
41467;BME280;27205;53.690;19.948;2023-06-04T11:09:28;100693.24;;;23.73;26.94
41467;BME280;27205;53.690;19.948;2023-06-04T11:14:31;100698.84;;;24.40;26.93
41467;BME280;27205;53.690;19.948;2023-06-04T11:19:36;100697.31;;;24.81;26.75
41467;BME280;27205;53.690;19.948;2023-06-04T11:24:40;100697.67;;;24.64;26.14
41467;BME280;27205;53.690;19.948;2023-06-04T11:29:49;100697.23;;;24.56;26.27
41467;BME280;27205;53.690;19.948;2023-06-04T11:35:02;100692.70;;;24.65;26.19
41467;BME280;27205;53.690;19.948;2023-06-04T11:40:19;100695.64;;;25.08;25.95
41467;BME280;27205;53.690;19.948;2023-06-04T11:45:24;100699.29;;;24.90;25.87
41467;BME280;27205;53.690;19.948;2023-06-04T11:50:28;100699.63;;;25.04;25.86
41467;BME280;27205;53.690;19.948;2023-06-04T11:55:32;100695.32;;;25.34;25.59
41467;BME280;27205;53.690;19.948;2023-06-04T12:00:36;100696.86;;;25.69;25.73
41467;BME280;27205;53.690;19.948;2023-06-04T12:05:39;100691.98;;;25.96;25.29
41467;BME280;27205;53.690;19.948;2023-06-04T12:10:43;100696.70;;;25.74;24.82
41467;BME280;27205;53.690;19.948;2023-06-04T12:15:53;100694.33;;;25.16;24.97
41467;BME280;27205;53.690;19.948;2023-06-04T12:20:57;100700.02;;;24.58;24.74
41467;BME280;27205;53.690;19.948;2023-06-04T12:26:00;100708.48;;;24.33;25.04
41467;BME280;27205;53.690;19.948;2023-06-04T12:31:16;100705.83;;;24.54;25.02
41467;BME280;27205;53.690;19.948;2023-06-04T12:36:20;100704.84;;;25.28;24.80
41467;BME280;27205;53.690;19.948;2023-06-04T12:41:24;100698.74;;;25.57;24.64
41467;BME280;27205;53.690;19.948;2023-06-04T12:46:28;100695.08;;;26.07;24.38
41467;BME280;27205;53.690;19.948;2023-06-04T12:51:32;100696.38;;;26.48;24.61
41467;BME280;27205;53.690;19.948;2023-06-04T12:56:36;100700.11;;;26.68;24.51
41467;BME280;27205;53.690;19.948;2023-06-04T13:01:39;100698.61;;;26.67;24.15
41467;BME280;27205;53.690;19.948;2023-06-04T13:06:44;100699.02;;;26.70;24.13
41467;BME280;27205;53.690;19.948;2023-06-04T13:11:48;100691.31;;;26.85;23.96
41467;BME280;27205;53.690;19.948;2023-06-04T13:16:52;100687.95;;;26.94;23.46
41467;BME280;27205;53.690;19.948;2023-06-04T13:21:56;100691.50;;;26.57;23.34
41467;BME280;27205;53.690;19.948;2023-06-04T13:27:01;100686.15;;;25.98;23.37
41467;BME280;27205;53.690;19.948;2023-06-04T13:32:04;100682.95;;;25.97;23.39
41467;BME280;27205;53.690;19.948;2023-06-04T13:37:08;100681.13;;;26.57;23.34
41467;BME280;27205;53.690;19.948;2023-06-04T13:42:14;100681.24;;;27.85;22.89
41467;BME280;27205;53.690;19.948;2023-06-04T13:47:17;100688.96;;;31.24;22.19
41467;BME280;27205;53.690;19.948;2023-06-04T13:52:21;100692.73;;;33.08;21.23
41467;BME280;27205;53.690;19.948;2023-06-04T13:57:25;100697.91;;;34.40;20.76
41467;BME280;27205;53.690;19.948;2023-06-04T14:02:29;100706.39;;;37.69;19.77
41467;BME280;27205;53.690;19.948;2023-06-04T14:07:33;100701.02;;;40.87;18.93
41467;BME280;27205;53.690;19.948;2023-06-04T14:12:38;100700.52;;;43.63;17.56
41467;BME280;27205;53.690;19.948;2023-06-04T14:17:44;100696.72;;;46.55;16.19
41467;BME280;27205;53.690;19.948;2023-06-04T14:22:48;100699.55;;;49.26;14.93
41467;BME280;27205;53.690;19.948;2023-06-04T14:27:52;100695.83;;;50.85;14.19
41467;BME280;27205;53.690;19.948;2023-06-04T14:32:56;100685.92;;;49.61;13.35
41467;BME280;27205;53.690;19.948;2023-06-04T14:37:59;100682.28;;;49.90;12.22
41467;BME280;27205;53.690;19.948;2023-06-04T14:43:03;100683.25;;;51.96;11.96
41467;BME280;27205;53.690;19.948;2023-06-04T14:48:07;100682.55;;;54.37;11.23
41467;BME280;27205;53.690;19.948;2023-06-04T14:53:13;100680.53;;;56.06;10.84
41467;BME280;27205;53.690;19.948;2023-06-04T14:58:17;100675.47;;;56.02;10.00
41467;BME280;27205;53.690;19.948;2023-06-04T15:03:20;100677.55;;;55.31;9.66
41467;BME280;27205;53.690;19.948;2023-06-04T15:08:24;100688.94;;;57.34;8.88
41467;BME280;27205;53.690;19.948;2023-06-04T15:13:28;100693.79;;;58.24;8.25
41467;BME280;27205;53.690;19.948;2023-06-04T15:18:31;100694.12;;;58.63;7.65
41467;BME280;27205;53.690;19.948;2023-06-04T15:23:35;100693.05;;;59.02;7.41
41467;BME280;27205;53.690;19.948;2023-06-04T15:28:40;100689.64;;;58.56;7.17
41467;BME280;27205;53.690;19.948;2023-06-04T15:33:44;100680.71;;;58.57;6.92
41467;BME280;27205;53.690;19.948;2023-06-04T15:38:48;100678.20;;;58.87;6.45
41467;BME280;27205;53.690;19.948;2023-06-04T15:43:53;100673.52;;;59.22;6.56
41467;BME280;27205;53.690;19.948;2023-06-04T15:48:56;100668.84;;;59.31;6.40
41467;BME280;27205;53.690;19.948;2023-06-04T15:54:00;100668.36;;;59.03;6.09
41467;BME280;27205;53.690;19.948;2023-06-04T15:59:05;100665.12;;;58.16;6.01
41467;BME280;27205;53.690;19.948;2023-06-04T16:04:12;100660.79;;;57.46;5.92
41467;BME280;27205;53.690;19.948;2023-06-04T16:09:16;100652.44;;;57.26;6.03
41467;BME280;27205;53.690;19.948;2023-06-04T16:14:20;100646.95;;;56.79;5.91
41467;BME280;27205;53.690;19.948;2023-06-04T16:19:23;100640.65;;;56.10;6.10
41467;BME280;27205;53.690;19.948;2023-06-04T16:24:27;100636.53;;;55.06;6.10
41467;BME280;27205;53.690;19.948;2023-06-04T16:29:30;100632.10;;;53.23;6.11
41467;BME280;27205;53.690;19.948;2023-06-04T16:34:34;100625.90;;;52.00;6.30
41467;BME280;27205;53.690;19.948;2023-06-04T16:39:38;100629.80;;;52.58;6.47
41467;BME280;27205;53.690;19.948;2023-06-04T16:44:41;100625.71;;;52.15;6.39
41467;BME280;27205;53.690;19.948;2023-06-04T16:49:45;100627.94;;;51.87;6.49
41467;BME280;27205;53.690;19.948;2023-06-04T16:54:49;100621.88;;;50.55;6.53
41467;BME280;27205;53.690;19.948;2023-06-04T16:59:53;100625.61;;;48.25;6.98
41467;BME280;27205;53.690;19.948;2023-06-04T17:04:57;100622.37;;;46.36;7.56
41467;BME280;27205;53.690;19.948;2023-06-04T17:10:03;100618.39;;;45.56;7.68
41467;BME280;27205;53.690;19.948;2023-06-04T17:15:07;100612.53;;;45.28;7.83
41467;BME280;27205;53.690;19.948;2023-06-04T17:20:11;100610.73;;;45.02;8.05
41467;BME280;27205;53.690;19.948;2023-06-04T17:25:15;100605.02;;;44.50;8.21
41467;BME280;27205;53.690;19.948;2023-06-04T17:30:18;100612.11;;;44.63;8.32
41467;BME280;27205;53.690;19.948;2023-06-04T17:35:28;100608.21;;;44.70;8.48
41467;BME280;27205;53.690;19.948;2023-06-04T17:40:32;100609.94;;;44.43;8.75
41467;BME280;27205;53.690;19.948;2023-06-04T17:45:35;100609.85;;;43.77;8.72
41467;BME280;27205;53.690;19.948;2023-06-04T17:50:39;100612.55;;;43.24;8.97
41467;BME280;27205;53.690;19.948;2023-06-04T17:55:43;100612.13;;;42.50;8.93
41467;BME280;27205;53.690;19.948;2023-06-04T18:00:46;100607.38;;;41.73;9.10
41467;BME280;27205;53.690;19.948;2023-06-04T18:05:50;100609.56;;;40.87;9.68
41467;BME280;27205;53.690;19.948;2023-06-04T18:10:54;100612.48;;;40.10;10.04
41467;BME280;27205;53.690;19.948;2023-06-04T18:15:59;100608.73;;;38.82;10.53
41467;BME280;27205;53.690;19.948;2023-06-04T18:21:03;100614.11;;;37.49;11.13
41467;BME280;27205;53.690;19.948;2023-06-04T18:26:06;100611.64;;;36.23;11.45
41467;BME280;27205;53.690;19.948;2023-06-04T18:31:10;100610.55;;;35.00;11.89
41467;BME280;27205;53.690;19.948;2023-06-04T18:36:14;100609.66;;;33.63;12.53
41467;BME280;27205;53.690;19.948;2023-06-04T18:41:17;100608.95;;;32.14;13.03
41467;BME280;27205;53.690;19.948;2023-06-04T18:46:21;100610.27;;;30.72;13.63
41467;BME280;27205;53.690;19.948;2023-06-04T18:51:25;100612.83;;;29.23;13.97
41467;BME280;27205;53.690;19.948;2023-06-04T18:56:29;100616.10;;;27.60;14.67
41467;BME280;27205;53.690;19.948;2023-06-04T19:01:33;100618.15;;;26.14;15.36
41467;BME280;27205;53.690;19.948;2023-06-04T19:06:37;100622.16;;;24.81;16.06
41467;BME280;27205;53.690;19.948;2023-06-04T19:11:41;100624.20;;;23.55;16.88
41467;BME280;27205;53.690;19.948;2023-06-04T19:16:44;100626.96;;;22.44;17.54
41467;BME280;27205;53.690;19.948;2023-06-04T19:21:48;100628.88;;;21.20;18.55
41467;BME280;27205;53.690;19.948;2023-06-04T19:26:55;100630.17;;;20.22;19.08
41467;BME280;27205;53.690;19.948;2023-06-04T19:31:59;100632.14;;;19.61;19.57
41467;BME280;27205;53.690;19.948;2023-06-04T19:37:03;100640.54;;;19.10;20.26
41467;BME280;27205;53.690;19.948;2023-06-04T19:42:07;100647.39;;;18.60;22.29
41467;BME280;27205;53.690;19.948;2023-06-04T19:47:11;100654.40;;;17.70;28.32
41467;BME280;27205;53.690;19.948;2023-06-04T19:52:15;100655.27;;;16.97;30.66
41467;BME280;27205;53.690;19.948;2023-06-04T19:57:18;100660.73;;;16.45;32.48
41467;BME280;27205;53.690;19.948;2023-06-04T20:02:22;100664.94;;;16.01;31.84
41467;BME280;27205;53.690;19.948;2023-06-04T20:07:26;100671.41;;;15.71;33.17
41467;BME280;27205;53.690;19.948;2023-06-04T20:12:31;100673.39;;;15.43;33.17
41467;BME280;27205;53.690;19.948;2023-06-04T20:17:35;100680.48;;;15.25;33.50
41467;BME280;27205;53.690;19.948;2023-06-04T20:22:39;100684.42;;;15.02;33.58
41467;BME280;27205;53.690;19.948;2023-06-04T20:27:42;100692.69;;;14.82;34.47
41467;BME280;27205;53.690;19.948;2023-06-04T20:32:46;100696.88;;;14.61;34.23
41467;BME280;27205;53.690;19.948;2023-06-04T20:37:49;100695.48;;;14.44;34.75
41467;BME280;27205;53.690;19.948;2023-06-04T20:42:53;100694.13;;;14.27;35.18
41467;BME280;27205;53.690;19.948;2023-06-04T20:47:57;100696.75;;;14.12;34.51
41467;BME280;27205;53.690;19.948;2023-06-04T20:53:00;100704.63;;;14.00;34.70
41467;BME280;27205;53.690;19.948;2023-06-04T20:58:04;100703.01;;;13.87;34.87
41467;BME280;27205;53.690;19.948;2023-06-04T21:03:08;100705.95;;;13.76;35.90
41467;BME280;27205;53.690;19.948;2023-06-04T21:08:11;100707.55;;;13.61;35.10
41467;BME280;27205;53.690;19.948;2023-06-04T21:13:15;100703.95;;;13.48;35.89
41467;BME280;27205;53.690;19.948;2023-06-04T21:18:19;100710.38;;;13.36;36.16
41467;BME280;27205;53.690;19.948;2023-06-04T21:23:22;100710.58;;;13.25;36.59
41467;BME280;27205;53.690;19.948;2023-06-04T21:28:26;100709.27;;;13.16;37.27
41467;BME280;27205;53.690;19.948;2023-06-04T21:33:30;100710.89;;;13.05;37.11
41467;BME280;27205;53.690;19.948;2023-06-04T21:38:34;100713.27;;;12.95;37.41
41467;BME280;27205;53.690;19.948;2023-06-04T21:43:38;100716.27;;;12.85;37.71
41467;BME280;27205;53.690;19.948;2023-06-04T21:48:44;100724.07;;;12.74;38.23
41467;BME280;27205;53.690;19.948;2023-06-04T21:53:48;100725.34;;;12.65;38.64
41467;BME280;27205;53.690;19.948;2023-06-04T21:58:52;100728.17;;;12.55;38.31
41467;BME280;27205;53.690;19.948;2023-06-04T22:03:56;100729.48;;;12.46;38.42
41467;BME280;27205;53.690;19.948;2023-06-04T22:09:00;100727.75;;;12.37;39.08
41467;BME280;27205;53.690;19.948;2023-06-04T22:14:03;100726.13;;;12.29;39.28
41467;BME280;27205;53.690;19.948;2023-06-04T22:19:07;100726.78;;;12.23;39.66
41467;BME280;27205;53.690;19.948;2023-06-04T22:24:11;100732.26;;;12.16;40.55
41467;BME280;27205;53.690;19.948;2023-06-04T22:29:15;100737.42;;;12.08;39.47
41467;BME280;27205;53.690;19.948;2023-06-04T22:34:19;100735.23;;;12.00;39.51
41467;BME280;27205;53.690;19.948;2023-06-04T22:39:23;100735.17;;;11.92;40.08
41467;BME280;27205;53.690;19.948;2023-06-04T22:44:27;100739.88;;;11.85;40.31
41467;BME280;27205;53.690;19.948;2023-06-04T22:49:30;100738.44;;;11.77;40.66
41467;BME280;27205;53.690;19.948;2023-06-04T22:54:34;100738.49;;;11.68;40.55
41467;BME280;27205;53.690;19.948;2023-06-04T22:59:37;100740.08;;;11.60;40.71
41467;BME280;27205;53.690;19.948;2023-06-04T23:04:45;100738.84;;;11.51;39.97
41467;BME280;27205;53.690;19.948;2023-06-04T23:09:49;100736.48;;;11.41;40.36
41467;BME280;27205;53.690;19.948;2023-06-04T23:14:52;100737.65;;;11.32;40.10
41467;BME280;27205;53.690;19.948;2023-06-04T23:19:56;100736.35;;;11.19;40.48
41467;BME280;27205;53.690;19.948;2023-06-04T23:25:00;100730.64;;;11.06;40.65
41467;BME280;27205;53.690;19.948;2023-06-04T23:30:04;100733.94;;;10.93;40.83
41467;BME280;27205;53.690;19.948;2023-06-04T23:35:08;100734.27;;;10.79;40.96
41467;BME280;27205;53.690;19.948;2023-06-04T23:40:12;100736.95;;;10.66;40.77
41467;BME280;27205;53.690;19.948;2023-06-04T23:45:15;100738.77;;;10.53;41.31
41467;BME280;27205;53.690;19.948;2023-06-04T23:50:19;100734.98;;;10.41;41.76
41467;BME280;27205;53.690;19.948;2023-06-04T23:55:23;100733.48;;;10.29;42.03
